Time;durP1;ratioP1;P1;durP2;ratioP2;P2;SDS_P1;SDS_P2;PMS_P1;PMS_P2;Temp;Humidity;BMP_temperature;BMP_pressure;BME280_temperature;BME280_humidity;BME280_pressure;Samples;Min_cycle;Max_cycle;Signal;HPM_P1;HPM_P2
2023/01/25 00:01:42;;;;;;;42.75;26.25;;;;;;;0.04;100.00;94068.34;5069273;28;20434;-68
2023/01/25 00:04:09;;;;;;;19.27;13.90;;;;;;;-0.03;100.00;94075.59;5069331;28;20052;-68
2023/01/25 00:06:36;;;;;;;18.48;12.77;;;;;;;-0.02;100.00;94069.63;5069001;28;20086;-69
2023/01/25 00:09:03;;;;;;;16.15;10.40;;;;;;;0.02;100.00;94073.50;5069409;28;20109;-68
2023/01/25 00:11:31;;;;;;;11.02;8.20;;;;;;;-0.14;100.00;94067.16;5068746;28;20492;-68
2023/01/25 00:13:58;;;;;;;11.85;8.40;;;;;;;-0.19;100.00;94061.66;5069071;28;20041;-68
2023/01/25 00:16:24;;;;;;;10.55;7.95;;;;;;;-0.19;100.00;94071.78;5069204;28;20100;-68
2023/01/25 00:18:51;;;;;;;12.63;8.20;;;;;;;-0.24;100.00;94063.75;5068923;28;20561;-68
2023/01/25 00:21:20;;;;;;;11.25;8.77;;;;;;;-0.24;100.00;94065.50;5068978;28;20036;-68
2023/01/25 00:23:47;;;;;;;11.70;8.20;;;;;;;-0.26;100.00;94058.03;5068690;28;20105;-68
2023/01/25 00:26:14;;;;;;;12.48;9.23;;;;;;;-0.27;100.00;94059.75;5068669;28;20048;-68
2023/01/25 00:28:42;;;;;;;14.05;9.73;;;;;;;-0.29;100.00;94060.78;5068595;28;20098;-68
2023/01/25 00:31:16;;;;;;;12.48;8.73;;;;;;;-0.27;100.00;94059.75;5071870;28;20048;-68
2023/01/25 00:33:50;;;;;;;13.55;9.60;;;;;;;-0.22;100.00;94063.63;5072536;28;20045;-68
2023/01/25 00:36:32;;;;;;;14.77;10.00;;;;;;;-0.13;100.00;94062.91;5072980;28;20329;-69
2023/01/25 00:38:59;;;;;;;16.90;11.23;;;;;;;-0.10;100.00;94071.97;5050257;28;20049;-68
2023/01/25 00:41:26;;;;;;;16.42;10.90;;;;;;;-0.02;100.00;94074.66;5072600;28;20443;-68
2023/01/25 00:43:54;;;;;;;16.90;11.75;;;;;;;0.02;100.00;94070.97;5064777;28;20049;-68
2023/01/25 00:46:21;;;;;;;24.02;16.23;;;;;;;-0.04;100.00;94069.72;5068360;28;20094;-69
2023/01/25 00:48:48;;;;;;;23.75;17.00;;;;;;;-0.08;100.00;94065.88;5072869;28;20044;-68
2023/01/25 00:51:15;;;;;;;15.40;11.82;;;;;;;-0.22;100.00;94063.63;5072414;28;20398;-68
2023/01/25 00:53:41;;;;;;;25.08;16.80;;;;;;;-0.32;100.00;94064.38;5072691;28;20441;-68
2023/01/25 00:56:08;;;;;;;12.85;9.55;;;;;;;-0.25;100.00;94066.41;5072684;28;20048;-68
2023/01/25 00:58:35;;;;;;;17.08;11.27;;;;;;;-0.33;100.00;94060.25;5072555;28;20364;-68
2023/01/25 01:01:03;;;;;;;14.57;9.63;;;;;;;-0.37;100.00;94056.34;5072442;28;20045;-68
2023/01/25 01:03:30;;;;;;;15.60;10.45;;;;;;;-0.24;100.00;94065.50;5072547;28;20048;-68
2023/01/25 01:06:01;;;;;;;15.15;9.82;;;;;;;-0.21;100.00;94066.06;5071805;28;20048;-68
2023/01/25 01:08:28;;;;;;;13.18;8.95;;;;;;;-0.20;100.00;94059.25;5072242;28;20502;-68
2023/01/25 01:10:59;;;;;;;14.40;10.05;;;;;;;-0.26;100.00;94068.13;5071417;28;20466;-68
2023/01/25 01:13:26;;;;;;;13.55;10.45;;;;;;;-0.22;100.00;94064.44;5072249;28;20049;-68
2023/01/25 01:15:53;;;;;;;19.77;12.60;;;;;;;-0.23;100.00;94054.47;5071894;28;20562;-68
2023/01/25 01:18:21;;;;;;;18.02;12.25;;;;;;;-0.23;100.00;94062.81;5072203;28;20102;-68
2023/01/25 01:20:51;;;;;;;28.38;16.13;;;;;;;-0.23;100.00;94060.31;5072174;28;20041;-69
2023/01/25 01:23:18;;;;;;;14.70;11.05;;;;;;;-0.16;100.00;94060.63;5072026;28;20459;-68
2023/01/25 01:25:45;;;;;;;15.88;10.80;;;;;;;-0.28;100.00;94057.34;5071704;28;20036;-68
2023/01/25 01:28:12;;;;;;;14.90;10.43;;;;;;;-0.20;100.00;94049.97;5071986;28;20048;-68
2023/01/25 01:30:40;;;;;;;14.02;10.10;;;;;;;-0.22;100.00;94053.53;5071526;28;20044;-68
2023/01/25 01:33:06;;;;;;;16.55;11.05;;;;;;;-0.28;100.00;94057.34;5071817;28;20044;-68
2023/01/25 01:35:34;;;;;;;19.30;13.15;;;;;;;-0.32;100.00;94043.38;5071551;28;20554;-68
2023/01/25 01:38:01;;;;;;;18.60;12.63;;;;;;;-0.32;100.00;94046.69;5071728;28;20041;-68
2023/01/25 01:40:28;;;;;;;16.65;11.52;;;;;;;-0.43;100.00;94052.59;5071602;28;20045;-68
2023/01/25 01:42:59;;;;;;;17.67;11.38;;;;;;;-0.51;100.00;94041.50;5070185;28;20118;-68
2023/01/25 01:45:51;;;;;;;17.25;12.57;;;;;;;-0.47;100.00;94037.81;5071607;28;20094;-68
2023/01/25 01:48:21;;;;;;;16.60;12.30;;;;;;;-0.49;100.00;94027.84;5071204;28;20045;-69
2023/01/25 01:50:54;;;;;;;13.25;9.57;;;;;;;-0.44;100.00;94043.44;5071101;28;20555;-68
2023/01/25 01:53:23;;;;;;;13.63;9.70;;;;;;;-0.51;100.00;94034.72;5071272;28;20545;-68
2023/01/25 01:55:51;;;;;;;13.93;10.35;;;;;;;-0.59;100.00;94037.88;5071274;28;20118;-68
2023/01/25 01:58:19;;;;;;;15.95;10.90;;;;;;;-0.76;100.00;94034.13;5070926;28;20045;-68
2023/01/25 02:00:45;;;;;;;15.18;10.55;;;;;;;-0.70;100.00;94038.69;5071251;28;20044;-68
2023/01/25 02:03:15;;;;;;;14.73;10.65;;;;;;;-0.79;100.00;94026.00;5071194;28;20053;-68
2023/01/25 02:05:47;;;;;;;17.92;11.02;;;;;;;-0.56;100.00;94030.03;5071103;28;20048;-68
2023/01/25 02:08:15;;;;;;;16.20;11.82;;;;;;;-0.46;100.00;94029.31;5071478;28;20499;-68
2023/01/25 02:10:43;;;;;;;17.35;11.70;;;;;;;-0.46;100.00;94024.28;5070898;28;20046;-68
2023/01/25 02:13:11;;;;;;;17.35;12.57;;;;;;;-0.41;100.00;94034.81;5071344;28;20098;-68
2023/01/25 02:15:41;;;;;;;16.65;11.82;;;;;;;-0.38;100.00;94036.28;5071140;28;20079;-68
2023/01/25 02:18:09;;;;;;;17.70;12.10;;;;;;;-0.41;100.00;94029.78;5071123;28;20110;-68
2023/01/25 02:20:38;;;;;;;19.35;12.82;;;;;;;-0.44;100.00;94030.81;5070964;28;20048;-68
2023/01/25 02:23:11;;;;;;;16.77;11.98;;;;;;;-0.37;100.00;94025.28;5071480;28;20052;-68
2023/01/25 02:25:40;;;;;;;19.17;12.80;;;;;;;-0.34;100.00;94023.28;5070314;28;20048;-68
2023/01/25 02:28:11;;;;;;;20.80;14.13;;;;;;;-0.24;100.00;94025.88;5070537;28;20101;-68
2023/01/25 02:30:38;;;;;;;18.58;12.65;;;;;;;-0.35;100.00;94029.28;5070483;28;20443;-68
2023/01/25 02:33:04;;;;;;;13.55;10.23;;;;;;;-0.43;100.00;94024.03;5068546;28;20090;-68
2023/01/25 02:35:40;;;;;;;16.13;11.07;;;;;;;-0.33;100.00;94031.69;5070382;28;20114;-68
2023/01/25 02:38:09;;;;;;;14.70;10.35;;;;;;;-0.43;100.00;94026.53;5070065;28;20122;-68
2023/01/25 02:40:44;;;;;;;13.60;9.77;;;;;;;-0.43;100.00;94026.53;5070152;28;20040;-68
2023/01/25 02:43:11;;;;;;;12.80;9.87;;;;;;;-0.47;100.00;94023.47;5070507;28;20125;-68
2023/01/25 02:45:37;;;;;;;12.20;9.68;;;;;;;-0.51;100.00;94026.38;5070594;28;20097;-68
2023/01/25 02:48:05;;;;;;;13.27;10.13;;;;;;;-0.39;100.00;94030.44;5070659;28;20045;-68
2023/01/25 02:50:32;;;;;;;12.57;9.68;;;;;;;-0.51;100.00;94032.19;5070339;28;20424;-68
2023/01/25 02:52:58;;;;;;;11.27;8.82;;;;;;;-0.48;100.00;94037.00;5070241;28;20094;-68
2023/01/25 02:55:25;;;;;;;13.65;9.82;;;;;;;-0.48;100.00;94037.00;5069916;28;20561;-68
2023/01/25 02:57:53;;;;;;;11.57;8.50;;;;;;;-0.50;100.00;94035.53;5064600;28;20115;-68
2023/01/25 03:00:20;;;;;;;10.90;8.20;;;;;;;-0.45;100.00;94034.25;5064612;28;20201;-68
2023/01/25 03:02:47;;;;;;;12.00;9.50;;;;;;;-0.48;100.00;94034.50;5070041;28;20049;-68
2023/01/25 03:05:14;;;;;;;12.50;8.90;;;;;;;-0.37;100.00;94032.84;5070117;28;20110;-68
2023/01/25 03:07:40;;;;;;;12.73;8.40;;;;;;;-0.57;100.00;94028.44;5070090;28;20044;-68
2023/01/25 03:10:08;;;;;;;11.63;7.65;;;;;;;-0.56;100.00;94032.56;5070017;28;20409;-68
2023/01/25 03:12:35;;;;;;;14.48;9.48;;;;;;;-0.47;100.00;94036.09;5069767;28;20045;-68
2023/01/25 03:15:04;;;;;;;13.57;9.25;;;;;;;-0.44;100.00;94042.63;5069853;28;20059;-68
2023/01/25 03:17:31;;;;;;;15.48;10.15;;;;;;;-0.57;100.00;94042.78;5069270;28;20052;-68
2023/01/25 03:19:57;;;;;;;15.38;8.93;;;;;;;-0.61;100.00;94027.09;5064324;28;20051;-68
2023/01/25 03:22:24;;;;;;;13.88;9.15;;;;;;;-0.66;100.00;94034.22;5069153;28;20539;-68
2023/01/25 03:24:51;;;;;;;13.70;9.45;;;;;;;-0.59;100.00;94030.31;5069269;28;20098;-68
2023/01/25 03:27:18;;;;;;;10.93;8.10;;;;;;;-0.63;100.00;94038.22;5069192;28;20531;-68
2023/01/25 03:29:45;;;;;;;10.77;7.38;;;;;;;-0.71;100.00;94029.53;5069056;28;20051;-68
2023/01/25 03:32:13;;;;;;;11.38;8.00;;;;;;;-0.65;100.00;94019.88;5069212;28;20090;-68
2023/01/25 03:34:40;;;;;;;11.27;8.85;;;;;;;-0.55;100.00;94021.53;5069256;28;20086;-68
2023/01/25 03:37:07;;;;;;;12.02;8.48;;;;;;;-0.66;100.00;94020.81;5068814;28;20090;-68
2023/01/25 03:39:33;;;;;;;11.48;8.50;;;;;;;-0.78;100.00;94018.31;5069057;28;20451;-68
2023/01/25 03:42:00;;;;;;;12.57;8.82;;;;;;;-0.67;100.00;94020.00;5068797;28;20097;-68
2023/01/25 03:44:27;;;;;;;11.77;8.48;;;;;;;-0.66;100.00;94014.03;5069078;28;20040;-68
2023/01/25 03:46:53;;;;;;;11.02;7.78;;;;;;;-0.58;100.00;94018.47;5068917;28;20446;-68
2023/01/25 03:49:21;;;;;;;14.07;9.82;;;;;;;-0.51;100.00;94014.53;5069167;28;20045;-68
2023/01/25 03:51:48;;;;;;;13.70;9.35;;;;;;;-0.39;100.00;94015.28;5069000;28;20413;-68
2023/01/25 03:54:15;;;;;;;15.77;11.02;;;;;;;-0.23;100.00;94016.59;5068338;28;20044;-68
2023/01/25 03:56:42;;;;;;;13.35;10.20;;;;;;;-0.20;100.00;94008.75;5068582;28;20052;-68
2023/01/25 03:59:10;;;;;;;13.73;9.32;;;;;;;-0.25;100.00;94013.38;5068898;28;20056;-68
2023/01/25 04:01:37;;;;;;;11.25;8.15;;;;;;;-0.18;100.00;94014.50;5068466;28;20389;-68
2023/01/25 04:04:04;;;;;;;14.48;9.52;;;;;;;-0.19;100.00;94015.44;5068285;28;20086;-68
2023/01/25 04:06:32;;;;;;;11.63;7.88;;;;;;;-0.10;100.00;94011.34;5068432;28;20090;-68
2023/01/25 04:08:59;;;;;;;10.93;8.25;;;;;;;-0.01;100.00;94008.06;5068596;28;20040;-68
2023/01/25 04:11:26;;;;;;;14.20;9.45;;;;;;;0.09;100.00;94016.50;5068463;28;20090;-68
2023/01/25 04:13:53;;;;;;;13.43;9.05;;;;;;;-0.10;100.00;94019.72;5068421;28;20045;-68
2023/01/25 04:16:19;;;;;;;9.77;7.32;;;;;;;-0.31;100.00;94017.22;5068645;28;20052;-68
2023/01/25 04:18:46;;;;;;;9.98;6.80;;;;;;;-0.35;100.00;94020.88;5068466;28;20045;-68
2023/01/25 04:21:13;;;;;;;7.13;5.47;;;;;;;-0.51;100.00;94018.78;5068271;28;20045;-68
2023/01/25 04:23:41;;;;;;;7.90;6.00;;;;;;;-0.65;100.00;94013.09;5068648;28;20436;-68
2023/01/25 04:26:11;;;;;;;9.75;6.90;;;;;;;-0.61;100.00;94016.22;5068629;28;20459;-68
2023/01/25 04:28:38;;;;;;;9.07;6.85;;;;;;;-0.73;100.00;94015.44;5068099;28;20513;-68
2023/01/25 04:31:05;;;;;;;9.93;7.32;;;;;;;-0.74;100.00;94013.84;5068640;28;20090;-68
2023/01/25 04:33:32;;;;;;;10.75;8.23;;;;;;;-0.81;100.00;94013.50;5068868;28;20036;-68
2023/01/25 04:35:59;;;;;;;11.43;8.27;;;;;;;-0.90;100.00;93994.03;5068732;28;20048;-68
2023/01/25 04:38:25;;;;;;;13.02;9.82;;;;;;;-0.86;100.00;94015.59;5068506;28;20496;-68
2023/01/25 04:40:54;;;;;;;12.27;9.50;;;;;;;-0.88;100.00;94020.75;5068869;28;20052;-68
2023/01/25 04:43:21;;;;;;;12.95;9.07;;;;;;;-0.89;100.00;94020.88;5068722;28;20098;-67
2023/01/25 04:45:48;;;;;;;12.50;8.63;;;;;;;-0.81;100.00;94026.13;5068967;28;20045;-67
2023/01/25 04:48:15;;;;;;;13.23;9.18;;;;;;;-0.76;100.00;94025.75;5068506;28;20048;-67
2023/01/25 04:50:43;;;;;;;10.95;8.15;;;;;;;-0.79;100.00;94026.78;5068976;28;20094;-68
2023/01/25 04:53:11;;;;;;;12.60;8.73;;;;;;;-0.71;100.00;94023.66;5068455;28;20118;-68
2023/01/25 04:55:37;;;;;;;10.93;7.78;;;;;;;-0.69;100.00;94027.69;5068379;28;20048;-68
2023/01/25 04:58:06;;;;;;;11.80;8.93;;;;;;;-0.56;100.00;94031.75;5068584;28;20060;-68
2023/01/25 05:00:32;;;;;;;11.85;8.63;;;;;;;-0.63;100.00;94033.16;5068788;28;20449;-68
2023/01/25 05:02:59;;;;;;;11.55;8.40;;;;;;;-0.65;100.00;94038.31;5068317;28;20435;-68
2023/01/25 05:05:26;;;;;;;12.25;8.57;;;;;;;-0.66;100.00;94036.72;5068588;28;20095;-67
2023/01/25 05:07:53;;;;;;;13.00;9.48;;;;;;;-0.53;100.00;94036.56;5068490;28;20094;-68
2023/01/25 05:10:20;;;;;;;13.27;10.20;;;;;;;-0.45;100.00;94038.50;5068611;28;20098;-68
2023/01/25 05:12:46;;;;;;;12.07;9.02;;;;;;;-0.44;100.00;94032.53;5068282;28;20493;-68
2023/01/25 05:15:15;;;;;;;11.45;9.50;;;;;;;-0.39;100.00;94035.47;5068559;28;21116;-68
2023/01/25 05:17:41;;;;;;;12.75;9.50;;;;;;;-0.42;100.00;94038.25;5071335;28;20459;-68
2023/01/25 05:20:09;;;;;;;13.57;8.82;;;;;;;-0.51;100.00;94033.94;5071863;28;20056;-68
2023/01/25 05:22:36;;;;;;;12.25;8.77;;;;;;;-0.54;100.00;94033.25;5071535;28;20497;-68
2023/01/25 05:25:05;;;;;;;13.15;8.50;;;;;;;-0.65;100.00;94015.63;5072193;28;20053;-68
2023/01/25 05:27:30;;;;;;;12.55;9.15;;;;;;;-0.54;100.00;94035.75;5071750;28;20045;-68
2023/01/25 05:29:57;;;;;;;15.15;9.32;;;;;;;-0.62;100.00;94014.56;5071869;28;20049;-68
2023/01/25 05:32:25;;;;;;;10.77;7.13;;;;;;;-0.48;100.00;94029.44;5071798;28;20041;-68
2023/01/25 05:34:52;;;;;;;10.57;8.20;;;;;;;-0.46;100.00;94024.28;5071769;28;20098;-68
2023/01/25 05:37:20;;;;;;;13.52;9.45;;;;;;;-0.45;100.00;94029.22;5071469;28;20045;-68
2023/01/25 05:39:47;;;;;;;13.40;10.05;;;;;;;-0.45;100.00;94029.22;5071141;28;20045;-68
2023/01/25 05:42:16;;;;;;;13.82;9.80;;;;;;;-0.53;100.00;94031.53;5071771;28;20053;-68
2023/01/25 05:44:42;;;;;;;16.85;12.18;;;;;;;-0.55;100.00;94025.81;5071669;28;20044;-68
2023/01/25 05:47:13;;;;;;;13.63;10.15;;;;;;;-0.59;100.00;94029.50;5071371;28;20554;-68
2023/01/25 05:49:41;;;;;;;13.82;10.52;;;;;;;-0.74;100.00;94039.06;5071137;28;20416;-68
2023/01/25 05:52:13;;;;;;;13.80;9.90;;;;;;;-0.85;100.00;94029.78;5071520;28;20049;-68
2023/01/25 05:54:40;;;;;;;13.43;9.90;;;;;;;-0.87;100.00;94027.41;5071005;28;20036;-68
2023/01/25 05:57:06;;;;;;;15.10;10.02;;;;;;;-1.08;100.00;94022.28;5070944;28;20052;-68
2023/01/25 05:59:33;;;;;;;15.07;10.02;;;;;;;-1.04;100.00;94027.91;5071345;28;20052;-68
2023/01/25 06:02:00;;;;;;;13.85;9.95;;;;;;;-1.15;100.00;94023.69;5071364;28;20448;-68
2023/01/25 06:04:27;;;;;;;14.07;9.98;;;;;;;-1.12;100.00;94023.44;5071198;28;20048;-68
2023/01/25 06:06:55;;;;;;;21.02;13.57;;;;;;;-1.05;100.00;94021.25;5071521;28;20045;-68
2023/01/25 06:09:22;;;;;;;21.70;14.35;;;;;;;-1.11;100.00;94017.50;5071267;28;20037;-68
2023/01/25 06:11:49;;;;;;;17.42;11.20;;;;;;;-1.09;100.00;94028.25;5071496;28;20050;-68
2023/01/25 06:14:15;;;;;;;19.23;12.48;;;;;;;-1.05;100.00;94023.78;5071006;28;20114;-68
2023/01/25 06:16:42;;;;;;;17.55;11.13;;;;;;;-0.95;100.00;94027.19;5071279;28;20444;-68
2023/01/25 06:19:09;;;;;;;14.68;10.07;;;;;;;-0.90;100.00;94032.69;5071039;28;20041;-68
2023/01/25 06:21:36;;;;;;;17.00;10.35;;;;;;;-0.90;100.00;94027.63;5070755;28;20045;-68
2023/01/25 06:24:04;;;;;;;14.95;8.85;;;;;;;-0.99;100.00;94023.28;5057243;28;20579;-68
2023/01/25 06:26:31;;;;;;;15.38;10.73;;;;;;;-1.14;100.00;94031.13;5070851;28;20052;-68
2023/01/25 06:28:58;;;;;;;15.38;10.85;;;;;;;-1.06;100.00;94032.25;5069735;28;20045;-68
2023/01/25 06:31:25;;;;;;;14.25;10.07;;;;;;;-1.01;100.00;94031.00;5070897;28;20056;-68
2023/01/25 06:33:52;;;;;;;15.68;10.65;;;;;;;-1.01;100.00;94027.66;5070507;28;20055;-68
2023/01/25 06:36:20;;;;;;;14.50;9.57;;;;;;;-1.02;100.00;94029.38;5071119;28;20443;-68
2023/01/25 06:38:49;;;;;;;15.00;10.05;;;;;;;-1.14;100.00;94013.50;5070811;28;20098;-67
2023/01/25 06:41:18;;;;;;;15.20;10.73;;;;;;;-1.04;100.00;94028.72;5070493;28;20055;-67
2023/01/25 06:43:46;;;;;;;14.35;10.10;;;;;;;-1.05;100.00;94022.06;5065336;28;20500;-67
2023/01/25 06:46:13;;;;;;;13.63;8.90;;;;;;;-1.07;100.00;94016.31;5068819;28;20116;-68
2023/01/25 06:48:41;;;;;;;14.35;9.63;;;;;;;-0.99;100.00;94019.06;5064590;28;20045;-68
2023/01/25 06:51:10;;;;;;;17.50;9.98;;;;;;;-1.01;100.00;94027.66;5062608;28;20534;-68
2023/01/25 06:53:39;;;;;;;20.05;14.25;;;;;;;-0.93;100.00;94027.88;5069757;28;20040;-68
2023/01/25 06:56:08;;;;;;;18.77;14.30;;;;;;;-0.96;100.00;94030.63;5070199;28;20419;-68
2023/01/25 06:58:36;;;;;;;16.27;12.45;;;;;;;-0.89;100.00;94024.19;5070036;28;20049;-68
2023/01/25 07:01:05;;;;;;;14.90;10.32;;;;;;;-0.80;100.00;94027.72;5070360;28;20048;-68
2023/01/25 07:03:32;;;;;;;17.33;11.57;;;;;;;-0.74;100.00;94018.88;5070117;28;20094;-68
2023/01/25 07:05:59;;;;;;;18.70;12.98;;;;;;;-0.74;100.00;94021.41;5070112;28;20052;-68
2023/01/25 07:08:26;;;;;;;19.77;13.45;;;;;;;-0.79;100.00;94021.75;5069919;28;20504;-68
2023/01/25 07:10:55;;;;;;;28.35;17.27;;;;;;;-0.65;100.00;94028.25;5069710;28;20105;-68
2023/01/25 07:13:21;;;;;;;22.42;13.73;;;;;;;-0.59;100.00;94024.44;5069645;28;20515;-68
2023/01/25 07:15:54;;;;;;;23.92;15.90;;;;;;;-0.52;100.00;94029.81;5069599;28;20040;-68
2023/01/25 07:18:21;;;;;;;18.23;13.20;;;;;;;-0.61;100.00;94024.56;5069686;28;20508;-68
2023/01/25 07:20:47;;;;;;;19.73;12.15;;;;;;;-0.61;100.00;94021.25;5069320;28;20040;-68
2023/01/25 07:23:14;;;;;;;16.50;11.75;;;;;;;-0.56;100.00;94031.75;5069854;28;20462;-68
2023/01/25 07:25:43;;;;;;;17.15;11.38;;;;;;;-0.54;100.00;94045.84;5069427;28;20467;-68
2023/01/25 07:28:10;;;;;;;14.32;9.57;;;;;;;-0.60;100.00;94046.34;5069663;28;20051;-68
2023/01/25 07:30:37;;;;;;;16.17;11.35;;;;;;;-0.56;100.00;94037.63;5069636;28;20052;-68
2023/01/25 07:33:05;;;;;;;15.63;10.85;;;;;;;-0.71;100.00;94039.63;5069541;28;20454;-68
2023/01/25 07:35:32;;;;;;;16.02;10.23;;;;;;;-0.67;100.00;94040.19;5069243;28;20048;-68
2023/01/25 07:37:59;;;;;;;16.52;10.63;;;;;;;-0.77;100.00;94044.34;5069678;28;20431;-68
2023/01/25 07:40:25;;;;;;;16.92;11.57;;;;;;;-0.77;100.00;94052.72;5042187;28;20105;-68
2023/01/25 07:42:52;;;;;;;16.33;12.05;;;;;;;-0.70;100.00;94053.03;5069533;28;20048;-68
2023/01/25 07:45:20;;;;;;;20.35;14.32;;;;;;;-0.58;100.00;94051.28;5069916;28;20098;-68
2023/01/25 07:47:47;;;;;;;18.73;13.30;;;;;;;-0.56;100.00;94051.94;5069094;28;20098;-68
2023/01/25 07:50:15;;;;;;;23.60;16.98;;;;;;;-0.51;100.00;94049.09;5069373;28;20040;-68
2023/01/25 07:52:42;;;;;;;21.50;14.43;;;;;;;-0.38;100.00;94041.34;5069160;28;20149;-68
2023/01/25 07:55:09;;;;;;;19.75;14.07;;;;;;;-0.44;100.00;94043.44;5069344;28;20060;-68
2023/01/25 07:57:36;;;;;;;24.33;15.65;;;;;;;-0.31;100.00;94035.69;5068593;28;20052;-68
2023/01/25 08:00:05;;;;;;;18.05;10.85;;;;;;;-0.31;100.00;94044.97;5069026;28;20044;-68
2023/01/25 08:02:32;;;;;;;19.10;12.80;;;;;;;-0.31;100.00;94044.97;5069246;28;20052;-68
2023/01/25 08:04:58;;;;;;;18.10;12.30;;;;;;;-0.39;100.00;94044.75;5068679;28;20044;-68
2023/01/25 08:07:28;;;;;;;23.73;16.55;;;;;;;-0.23;100.00;94041.84;5068850;28;20052;-68
2023/01/25 08:09:56;;;;;;;24.73;17.25;;;;;;;-0.27;100.00;94044.59;5068392;28;20546;-68
2023/01/25 08:12:24;;;;;;;24.27;17.15;;;;;;;-0.14;100.00;94052.00;5068334;28;20052;-68
2023/01/25 08:14:51;;;;;;;27.13;20.40;;;;;;;-0.23;100.00;94047.69;5069294;28;20052;-68
2023/01/25 08:17:17;;;;;;;21.23;14.68;;;;;;;-0.21;100.00;94045.03;5067958;28;20048;-68
2023/01/25 08:19:44;;;;;;;27.17;17.17;;;;;;;-0.24;100.00;94048.59;5068913;28;20049;-68
2023/01/25 08:22:12;;;;;;;20.67;13.93;;;;;;;-0.39;100.00;94020.34;5068922;28;20090;-68
2023/01/25 08:24:40;;;;;;;24.80;16.65;;;;;;;-0.18;100.00;94045.59;5068996;28;20064;-68
2023/01/25 08:27:07;;;;;;;25.23;16.70;;;;;;;-0.10;100.00;94042.44;5068823;28;20070;-68
2023/01/25 08:29:33;;;;;;;22.50;13.95;;;;;;;-0.18;100.00;94043.06;5068938;28;20045;-68
2023/01/25 08:32:03;;;;;;;22.77;16.55;;;;;;;-0.24;100.00;94041.03;5068326;28;20049;-68
2023/01/25 08:34:31;;;;;;;25.65;16.92;;;;;;;-0.38;100.00;94021.94;5068747;28;20091;-68
2023/01/25 08:36:57;;;;;;;24.17;17.70;;;;;;;-0.28;100.00;94037.94;5068509;28;20055;-68
2023/01/25 08:39:25;;;;;;;26.10;19.08;;;;;;;-0.23;100.00;94037.56;5068371;28;20094;-68
2023/01/25 08:41:53;;;;;;;29.45;20.65;;;;;;;-0.06;100.00;94038.75;5068330;28;20508;-68
2023/01/25 08:44:21;;;;;;;23.98;16.40;;;;;;;0.06;100.00;94031.13;5068383;28;20049;-68
2023/01/25 08:46:48;;;;;;;28.20;18.40;;;;;;;0.04;100.00;94007.72;5068275;28;20040;-68
2023/01/25 08:49:15;;;;;;;22.17;15.57;;;;;;;0.21;100.00;94027.34;5068272;28;20108;-68
2023/01/25 08:51:42;;;;;;;24.05;14.98;;;;;;;0.20;100.00;94024.94;5070376;28;20489;-68
2023/01/25 08:54:12;;;;;;;25.00;17.65;;;;;;;0.18;100.00;94024.28;5072768;28;20471;-68
2023/01/25 08:56:40;;;;;;;25.05;18.10;;;;;;;0.16;100.00;94026.09;5072336;28;20098;-68
2023/01/25 08:59:10;;;;;;;24.13;17.98;;;;;;;0.21;100.00;94029.88;5072191;28;20052;-68
2023/01/25 09:01:37;;;;;;;23.95;18.05;;;;;;;0.16;100.00;94029.44;5072058;28;20090;-68
2023/01/25 09:04:04;;;;;;;25.95;18.05;;;;;;;0.19;100.00;94030.91;5071849;28;20052;-68
2023/01/25 09:06:30;;;;;;;25.65;17.88;;;;;;;0.26;100.00;94032.00;5072355;28;20092;-68
2023/01/25 09:08:59;;;;;;;23.50;17.83;;;;;;;0.21;100.00;94039.16;5071839;28;20496;-68
2023/01/25 09:11:25;;;;;;;27.88;19.45;;;;;;;0.24;100.00;94034.66;5072541;28;20048;-68
2023/01/25 09:13:52;;;;;;;26.33;17.83;;;;;;;0.25;100.00;94038.81;5072228;28;20105;-68
2023/01/25 09:16:27;;;;;;;24.38;16.73;;;;;;;0.24;100.00;94034.66;5072266;28;20571;-68
2023/01/25 09:18:55;;;;;;;21.92;15.82;;;;;;;0.20;100.00;94028.28;5071941;28;20114;-68
2023/01/25 09:21:21;;;;;;;28.35;17.95;;;;;;;0.20;100.00;94024.94;5072223;28;20052;-68
2023/01/25 09:23:49;;;;;;;25.45;17.15;;;;;;;0.11;100.00;94019.72;5071758;28;20550;-68
2023/01/25 09:26:16;;;;;;;26.17;17.42;;;;;;;-0.03;100.00;94004.88;5071889;28;20101;-68
2023/01/25 09:28:46;;;;;;;26.77;18.05;;;;;;;0.19;100.00;94016.53;5072036;28;20040;-68
2023/01/25 09:31:13;;;;;;;23.88;15.98;;;;;;;0.24;100.00;94008.59;5072001;28;20057;-68
2023/01/25 09:33:41;;;;;;;23.02;15.50;;;;;;;0.19;100.00;94015.75;5071923;28;20098;-68
2023/01/25 09:36:09;;;;;;;22.85;15.82;;;;;;;0.30;100.00;94005.56;5071970;28;20098;-68
2023/01/25 09:38:36;;;;;;;22.17;15.27;;;;;;;0.26;100.00;93999.16;5071349;28;20052;-68
2023/01/25 09:41:15;;;;;;;24.83;17.20;;;;;;;0.32;100.00;93998.66;5072121;28;20491;-68
2023/01/25 09:44:00;;;;;;;26.27;17.85;;;;;;;0.48;100.00;93994.84;5058899;28;20048;-68
2023/01/25 09:46:37;;;;;;;23.60;14.82;;;;;;;0.52;100.00;93994.47;5071667;28;20424;-68
2023/01/25 09:49:20;;;;;;;25.70;15.35;;;;;;;0.49;100.00;93988.88;5071782;28;20052;-68
2023/01/25 09:52:01;;;;;;;23.65;16.23;;;;;;;0.52;100.00;93984.34;5071869;28;20041;-68
2023/01/25 09:54:29;;;;;;;34.25;24.55;;;;;;;0.64;100.00;93972.41;5071612;28;20114;-68
2023/01/25 09:56:57;;;;;;;25.23;18.27;;;;;;;0.73;100.00;93968.31;5071402;28;20059;-68
2023/01/25 09:59:29;;;;;;;28.05;19.45;;;;;;;0.65;100.00;93970.69;5071267;28;20061;-68
2023/01/25 10:02:02;;;;;;;27.63;18.92;;;;;;;0.72;100.00;93968.44;5070979;28;20059;-68
2023/01/25 10:04:38;;;;;;;31.48;21.23;;;;;;;0.75;100.00;93966.44;5070686;28;20102;-68
2023/01/25 10:07:14;;;;;;;29.98;23.02;;;;;;;0.83;100.00;93959.94;5071260;28;20048;-68
2023/01/25 10:09:48;;;;;;;27.45;22.05;;;;;;;0.99;100.00;93959.41;5070969;28;20041;-68
2023/01/25 10:12:19;;;;;;;25.83;19.83;;;;;;;1.02;100.00;93970.06;5070814;28;20638;-68
2023/01/25 10:14:45;;;;;;;22.50;16.95;;;;;;;0.80;100.00;93956.72;5071196;28;20044;-68
2023/01/25 10:17:19;;;;;;;20.48;16.75;;;;;;;0.81;100.00;93957.53;5070662;28;20314;-68
2023/01/25 10:20:12;;;;;;;30.60;24.42;;;;;;;0.89;100.00;93956.88;5071105;28;20044;-68
2023/01/25 10:22:46;;;;;;;24.95;18.92;;;;;;;0.93;100.00;93948.13;5071402;28;20447;-68
2023/01/25 10:25:31;;;;;;;23.30;17.83;;;;;;;1.01;100.00;93945.72;5070795;28;20040;-68
2023/01/25 10:28:13;;;;;;;22.75;18.90;;;;;;;0.98;100.00;93940.13;5070788;28;20534;-68
2023/01/25 10:30:48;;;;;;;24.08;18.50;;;;;;;1.08;100.00;93945.19;5070863;28;20578;-68
2023/01/25 10:33:19;;;;;;;24.02;18.50;;;;;;;0.84;100.00;93936.25;5070285;28;20044;-68
2023/01/25 10:35:48;;;;;;;25.88;19.73;;;;;;;1.06;100.00;93936.00;5070862;28;20090;-68
2023/01/25 10:38:21;;;;;;;25.05;18.58;;;;;;;1.04;100.00;93930.28;5070589;28;20094;-68
2023/01/25 10:40:54;;;;;;;22.23;18.67;;;;;;;0.99;100.00;93926.53;5071009;28;20408;-68
2023/01/25 10:43:22;;;;;;;24.30;18.58;;;;;;;1.20;100.00;93924.66;5070082;28;20044;-68
2023/01/25 10:45:50;;;;;;;21.83;17.40;;;;;;;1.33;100.00;93921.88;5070691;28;20110;-68
2023/01/25 10:48:21;;;;;;;28.63;18.52;;;;;;;1.39;100.00;93924.78;5069991;28;20082;-68
2023/01/25 10:50:52;;;;;;;25.90;19.10;;;;;;;1.50;100.00;93911.16;5070671;28;20051;-68
2023/01/25 10:53:30;;;;;;;24.75;17.45;;;;;;;1.53;100.00;93916.75;5069516;28;20044;-68
2023/01/25 10:56:05;;;;;;;21.30;16.20;;;;;;;1.50;100.00;93908.63;5070375;28;20049;-68
2023/01/25 10:58:35;;;;;;;30.30;21.30;;;;;;;1.44;100.00;93904.94;5070112;28;20102;-68
2023/01/25 11:01:05;;;;;;;24.20;18.00;;;;;;;1.51;100.00;93907.69;5070293;28;20098;-68
2023/01/25 11:03:37;;;;;;;25.20;18.42;;;;;;;1.49;100.00;93899.44;5070592;28;20132;-68
2023/01/25 11:06:06;;;;;;;22.50;17.08;;;;;;;1.24;100.00;93909.22;5069945;28;20565;-68
2023/01/25 11:08:35;;;;;;;26.38;18.50;;;;;;;1.38;100.00;93905.47;5070136;28;20059;-68
2023/01/25 11:11:24;;;;;;;43.17;27.02;;;;;;;1.25;100.00;93901.47;5069315;28;20040;-68
2023/01/25 11:13:53;;;;;;;38.47;25.38;;;;;;;1.44;100.00;93899.88;5069414;28;20057;-68
2023/01/25 11:16:32;;;;;;;32.38;23.98;;;;;;;1.48;100.00;93892.78;5070350;28;20144;-68
2023/01/25 11:19:01;;;;;;;41.10;31.13;;;;;;;1.56;100.00;93886.09;5069970;28;20053;-68
2023/01/25 11:21:31;;;;;;;24.10;19.20;;;;;;;1.58;100.00;93886.75;5070325;28;20040;-68